OIIK

Qazvin Airport

Airport
ICAO code
OIIK
IATA Code
GZW
Summary
ICAO Region
MID
ICAO Territory
Location

Qazvin, Qazvin Province

Serving
Qazvin
Elevation
4184 ft
Coordinates
36° 14' 35" N , 50° 2' 50" E
KCC
Metar
Observation
OIIK 041600Z 34004KT 9999 SCT040 BKN090 03/M04 Q1025
Station
Ghazvin
Date/Time
2022-12-04 16:00:00
Wind direction
340°
Wind speed
04 kts
Lowest cloud amount
scattered clouds
Temperature
3°C
Dew point
-4°C
Humidity
60%
QNH
1025 hPa
Weather condition
n/a

Airport located on the eastern outskirts of the city of Qazvin, Iran.

Climatology

Warm Mediterranean climate (Köppen climate classification Csa).

Runways

Designator Length Width Surface Rops
10/28 1119 40 ASP No/No

Airport map

Aerial View

SKYbrary Partners:

Safety knowledge contributed by: